sensor_id;sensor_type;location;lat;lon;timestamp;pressure;altitude;pressure_sealevel;temperature;humidity
4570;BME280;2297;51.442;6.996;2023-07-13T00:01:54;100221.06;;;20.47;37.48
4570;BME280;2297;51.442;6.996;2023-07-13T00:04:23;100221.66;;;20.37;37.53
4570;BME280;2297;51.442;6.996;2023-07-13T00:06:51;100221.25;;;20.43;37.47
4570;BME280;2297;51.442;6.996;2023-07-13T00:09:19;100217.44;;;20.33;37.63
4570;BME280;2297;51.442;6.996;2023-07-13T00:11:51;100219.16;;;20.34;37.59
4570;BME280;2297;51.442;6.996;2023-07-13T00:14:18;100221.56;;;20.24;37.76
4570;BME280;2297;51.442;6.996;2023-07-13T00:16:45;100214.41;;;20.10;37.61
4570;BME280;2297;51.442;6.996;2023-07-13T00:19:13;100213.59;;;19.94;38.15
4570;BME280;2297;51.442;6.996;2023-07-13T00:21:40;100218.16;;;19.77;38.36
4570;BME280;2297;51.442;6.996;2023-07-13T00:24:08;100215.28;;;19.81;38.39
4570;BME280;2297;51.442;6.996;2023-07-13T00:26:38;100215.78;;;19.87;38.04
4570;BME280;2297;51.442;6.996;2023-07-13T00:29:06;100218.59;;;20.00;37.88
4570;BME280;2297;51.442;6.996;2023-07-13T00:31:34;100220.59;;;19.97;38.03
4570;BME280;2297;51.442;6.996;2023-07-13T00:34:01;100222.16;;;19.70;38.35
4570;BME280;2297;51.442;6.996;2023-07-13T00:36:29;100217.13;;;19.80;38.36
4570;BME280;2297;51.442;6.996;2023-07-13T00:38:56;100216.25;;;19.65;38.53
4570;BME280;2297;51.442;6.996;2023-07-13T00:41:23;100223.88;;;19.71;38.48
4570;BME280;2297;51.442;6.996;2023-07-13T00:43:50;100216.63;;;19.73;38.66
4570;BME280;2297;51.442;6.996;2023-07-13T00:46:22;100215.97;;;19.39;39.05
4570;BME280;2297;51.442;6.996;2023-07-13T00:48:50;100218.72;;;19.68;38.93
4570;BME280;2297;51.442;6.996;2023-07-13T00:51:20;100207.78;;;19.57;39.25
4570;BME280;2297;51.442;6.996;2023-07-13T00:53:48;100216.22;;;19.51;39.22
4570;BME280;2297;51.442;6.996;2023-07-13T00:56:15;100225.56;;;19.43;39.46
4570;BME280;2297;51.442;6.996;2023-07-13T00:58:42;100211.50;;;19.54;39.26
4570;BME280;2297;51.442;6.996;2023-07-13T01:01:09;100217.34;;;19.61;39.30
4570;BME280;2297;51.442;6.996;2023-07-13T01:03:39;100220.44;;;19.55;39.33
4570;BME280;2297;51.442;6.996;2023-07-13T01:06:07;100213.72;;;19.62;39.29
4570;BME280;2297;51.442;6.996;2023-07-13T01:08:34;100211.81;;;19.50;39.27
4570;BME280;2297;51.442;6.996;2023-07-13T01:11:00;100212.00;;;19.47;39.48
4570;BME280;2297;51.442;6.996;2023-07-13T01:13:27;100209.81;;;19.53;39.42
4570;BME280;2297;51.442;6.996;2023-07-13T01:15:55;100210.88;;;19.51;39.48
4570;BME280;2297;51.442;6.996;2023-07-13T01:18:26;100218.34;;;19.30;39.90
4570;BME280;2297;51.442;6.996;2023-07-13T01:20:56;100215.59;;;19.31;39.80
4570;BME280;2297;51.442;6.996;2023-07-13T01:23:23;100200.75;;;19.09;40.12
4570;BME280;2297;51.442;6.996;2023-07-13T01:25:51;100205.94;;;19.12;40.04
4570;BME280;2297;51.442;6.996;2023-07-13T01:28:19;100198.50;;;19.18;40.12
4570;BME280;2297;51.442;6.996;2023-07-13T01:30:46;100211.63;;;19.06;40.35
4570;BME280;2297;51.442;6.996;2023-07-13T01:33:14;100211.06;;;18.53;41.36
4570;BME280;2297;51.442;6.996;2023-07-13T01:35:41;100201.84;;;18.91;40.56
4570;BME280;2297;51.442;6.996;2023-07-13T01:38:10;100203.91;;;18.86;40.87
4570;BME280;2297;51.442;6.996;2023-07-13T01:40:38;100214.22;;;19.08;40.35
4570;BME280;2297;51.442;6.996;2023-07-13T01:43:05;100216.69;;;18.81;41.04
4570;BME280;2297;51.442;6.996;2023-07-13T01:45:32;100217.69;;;18.94;40.70
4570;BME280;2297;51.442;6.996;2023-07-13T01:47:59;100207.00;;;18.94;40.66
4570;BME280;2297;51.442;6.996;2023-07-13T01:50:26;100210.81;;;18.90;40.79
4570;BME280;2297;51.442;6.996;2023-07-13T01:52:53;100222.53;;;18.87;40.87
4570;BME280;2297;51.442;6.996;2023-07-13T01:55:21;100224.28;;;18.88;40.70
4570;BME280;2297;51.442;6.996;2023-07-13T01:57:48;100220.63;;;18.89;40.89
4570;BME280;2297;51.442;6.996;2023-07-13T02:00:15;100228.31;;;18.79;41.01
4570;BME280;2297;51.442;6.996;2023-07-13T02:02:42;100230.06;;;18.49;41.55
4570;BME280;2297;51.442;6.996;2023-07-13T02:05:09;100231.97;;;18.29;42.42
4570;BME280;2297;51.442;6.996;2023-07-13T02:07:36;100228.50;;;18.27;42.45
4570;BME280;2297;51.442;6.996;2023-07-13T02:10:03;100224.25;;;18.40;42.32
4570;BME280;2297;51.442;6.996;2023-07-13T02:12:31;100228.09;;;18.68;41.76
4570;BME280;2297;51.442;6.996;2023-07-13T02:14:57;100237.56;;;18.58;42.08
4570;BME280;2297;51.442;6.996;2023-07-13T02:17:25;100233.06;;;18.58;42.04
4570;BME280;2297;51.442;6.996;2023-07-13T02:19:52;100232.03;;;18.61;42.18
4570;BME280;2297;51.442;6.996;2023-07-13T02:22:21;100224.38;;;18.37;42.59
4570;BME280;2297;51.442;6.996;2023-07-13T02:24:48;100220.41;;;18.62;42.22
4570;BME280;2297;51.442;6.996;2023-07-13T02:27:15;100220.97;;;18.35;42.55
4570;BME280;2297;51.442;6.996;2023-07-13T02:29:43;100230.31;;;18.60;42.36
4570;BME280;2297;51.442;6.996;2023-07-13T02:32:09;100232.13;;;18.43;42.54
4570;BME280;2297;51.442;6.996;2023-07-13T02:34:36;100232.22;;;18.58;42.26
4570;BME280;2297;51.442;6.996;2023-07-13T02:37:03;100231.50;;;18.54;42.35
4570;BME280;2297;51.442;6.996;2023-07-13T02:39:30;100230.75;;;18.68;42.13
4570;BME280;2297;51.442;6.996;2023-07-13T02:41:58;100225.78;;;18.28;42.86
4570;BME280;2297;51.442;6.996;2023-07-13T02:44:25;100224.38;;;18.37;42.78
4570;BME280;2297;51.442;6.996;2023-07-13T02:46:54;100234.81;;;18.26;43.05
4570;BME280;2297;51.442;6.996;2023-07-13T02:49:20;100228.88;;;18.21;43.46
4570;BME280;2297;51.442;6.996;2023-07-13T02:51:47;100233.56;;;18.49;43.03
4570;BME280;2297;51.442;6.996;2023-07-13T02:54:13;100230.72;;;18.52;42.77
4570;BME280;2297;51.442;6.996;2023-07-13T02:56:40;100236.34;;;18.48;43.10
4570;BME280;2297;51.442;6.996;2023-07-13T02:59:08;100228.91;;;18.03;44.12
4570;BME280;2297;51.442;6.996;2023-07-13T03:01:35;100241.59;;;18.16;43.92
4570;BME280;2297;51.442;6.996;2023-07-13T03:04:03;100237.41;;;17.94;44.59
4570;BME280;2297;51.442;6.996;2023-07-13T03:06:31;100244.16;;;18.01;44.63
4570;BME280;2297;51.442;6.996;2023-07-13T03:08:58;100252.69;;;18.08;44.41
4570;BME280;2297;51.442;6.996;2023-07-13T03:11:25;100243.84;;;18.07;44.31
4570;BME280;2297;51.442;6.996;2023-07-13T03:13:52;100243.00;;;18.23;44.11
4570;BME280;2297;51.442;6.996;2023-07-13T03:16:19;100235.47;;;18.13;44.24
4570;BME280;2297;51.442;6.996;2023-07-13T03:18:46;100235.03;;;18.05;44.64
4570;BME280;2297;51.442;6.996;2023-07-13T03:21:14;100240.69;;;17.99;44.90
4570;BME280;2297;51.442;6.996;2023-07-13T03:23:41;100238.81;;;18.01;44.88
4570;BME280;2297;51.442;6.996;2023-07-13T03:26:10;100248.91;;;17.78;45.25
4570;BME280;2297;51.442;6.996;2023-07-13T03:28:38;100247.00;;;17.81;45.50
4570;BME280;2297;51.442;6.996;2023-07-13T03:31:07;100256.75;;;17.82;45.76
4570;BME280;2297;51.442;6.996;2023-07-13T03:33:34;100248.09;;;17.76;45.64
4570;BME280;2297;51.442;6.996;2023-07-13T03:36:01;100245.13;;;17.83;45.71
4570;BME280;2297;51.442;6.996;2023-07-13T03:38:30;100243.56;;;17.78;46.01
4570;BME280;2297;51.442;6.996;2023-07-13T03:40:56;100247.94;;;17.97;45.44
4570;BME280;2297;51.442;6.996;2023-07-13T03:43:23;100259.41;;;17.82;46.16
4570;BME280;2297;51.442;6.996;2023-07-13T03:45:49;100264.44;;;17.88;46.00
4570;BME280;2297;51.442;6.996;2023-07-13T03:48:16;100266.56;;;17.99;45.72
4570;BME280;2297;51.442;6.996;2023-07-13T03:50:43;100263.81;;;17.83;46.24
4570;BME280;2297;51.442;6.996;2023-07-13T03:53:09;100260.84;;;17.89;46.11
4570;BME280;2297;51.442;6.996;2023-07-13T03:55:37;100270.09;;;17.46;47.44
4570;BME280;2297;51.442;6.996;2023-07-13T03:58:27;100262.25;;;17.78;46.54
4570;BME280;2297;51.442;6.996;2023-07-13T04:00:54;100269.06;;;17.84;46.55
4570;BME280;2297;51.442;6.996;2023-07-13T04:03:21;100268.44;;;17.79;46.50
4570;BME280;2297;51.442;6.996;2023-07-13T04:05:48;100269.97;;;17.85;46.48
4570;BME280;2297;51.442;6.996;2023-07-13T04:08:14;100279.44;;;17.90;46.61
4570;BME280;2297;51.442;6.996;2023-07-13T04:10:43;100270.97;;;17.82;46.77
4570;BME280;2297;51.442;6.996;2023-07-13T04:13:09;100287.47;;;17.73;47.16
4570;BME280;2297;51.442;6.996;2023-07-13T04:15:36;100281.19;;;17.91;46.68
4570;BME280;2297;51.442;6.996;2023-07-13T04:18:03;100290.75;;;17.95;46.56
4570;BME280;2297;51.442;6.996;2023-07-13T04:20:29;100285.56;;;17.75;47.08
4570;BME280;2297;51.442;6.996;2023-07-13T04:22:56;100292.19;;;17.68;47.42
4570;BME280;2297;51.442;6.996;2023-07-13T04:25:24;100288.78;;;17.64;47.77
4570;BME280;2297;51.442;6.996;2023-07-13T04:27:52;100293.22;;;17.65;47.77
4570;BME280;2297;51.442;6.996;2023-07-13T04:30:19;100293.38;;;17.79;47.52
4570;BME280;2297;51.442;6.996;2023-07-13T04:32:46;100299.31;;;17.67;47.61
4570;BME280;2297;51.442;6.996;2023-07-13T04:35:13;100306.16;;;17.90;47.31
4570;BME280;2297;51.442;6.996;2023-07-13T04:37:40;100298.56;;;17.65;47.90
4570;BME280;2297;51.442;6.996;2023-07-13T04:40:08;100303.69;;;17.51;48.43
4570;BME280;2297;51.442;6.996;2023-07-13T04:42:37;100306.19;;;17.54;48.37
4570;BME280;2297;51.442;6.996;2023-07-13T04:45:06;100304.78;;;17.64;48.47
4570;BME280;2297;51.442;6.996;2023-07-13T04:47:33;100291.44;;;17.64;48.64
4570;BME280;2297;51.442;6.996;2023-07-13T04:50:00;100294.88;;;17.49;49.03
4570;BME280;2297;51.442;6.996;2023-07-13T04:52:26;100297.00;;;17.42;48.88
4570;BME280;2297;51.442;6.996;2023-07-13T04:54:53;100291.63;;;17.78;48.35
4570;BME280;2297;51.442;6.996;2023-07-13T04:57:19;100300.88;;;17.71;48.22
4570;BME280;2297;51.442;6.996;2023-07-13T04:59:46;100301.66;;;17.56;48.88
4570;BME280;2297;51.442;6.996;2023-07-13T05:02:14;100300.88;;;17.71;48.71
4570;BME280;2297;51.442;6.996;2023-07-13T05:04:41;100303.63;;;17.70;48.73
4570;BME280;2297;51.442;6.996;2023-07-13T05:07:09;100311.69;;;17.33;49.76
4570;BME280;2297;51.442;6.996;2023-07-13T05:09:36;100312.00;;;17.62;49.17
4570;BME280;2297;51.442;6.996;2023-07-13T05:12:03;100309.22;;;17.83;48.44
4570;BME280;2297;51.442;6.996;2023-07-13T05:14:30;100305.91;;;17.95;48.41
4570;BME280;2297;51.442;6.996;2023-07-13T05:16:56;100320.53;;;17.88;48.58
4570;BME280;2297;51.442;6.996;2023-07-13T05:19:25;100309.97;;;18.20;47.92
4570;BME280;2297;51.442;6.996;2023-07-13T05:21:51;100322.94;;;18.45;47.51
4570;BME280;2297;51.442;6.996;2023-07-13T05:24:18;100323.03;;;18.26;47.58
4570;BME280;2297;51.442;6.996;2023-07-13T05:26:44;100324.91;;;18.24;47.93
4570;BME280;2297;51.442;6.996;2023-07-13T05:29:11;100326.59;;;18.42;47.35
4570;BME280;2297;51.442;6.996;2023-07-13T05:31:37;100321.91;;;18.48;47.42
4570;BME280;2297;51.442;6.996;2023-07-13T05:34:04;100327.41;;;18.44;47.45
4570;BME280;2297;51.442;6.996;2023-07-13T05:36:32;100323.38;;;18.36;47.69
4570;BME280;2297;51.442;6.996;2023-07-13T05:38:59;100337.41;;;18.06;48.29
4570;BME280;2297;51.442;6.996;2023-07-13T05:41:25;100329.59;;;18.36;47.81
4570;BME280;2297;51.442;6.996;2023-07-13T05:43:52;100329.78;;;18.16;48.27
4570;BME280;2297;51.442;6.996;2023-07-13T05:46:18;100331.66;;;18.31;48.16
4570;BME280;2297;51.442;6.996;2023-07-13T05:48:45;100349.63;;;17.94;48.88
4570;BME280;2297;51.442;6.996;2023-07-13T05:51:11;100337.31;;;18.25;48.46
4570;BME280;2297;51.442;6.996;2023-07-13T05:53:40;100337.81;;;18.16;48.65
4570;BME280;2297;51.442;6.996;2023-07-13T05:56:06;100341.06;;;18.56;47.89
4570;BME280;2297;51.442;6.996;2023-07-13T05:58:33;100347.53;;;18.34;48.23
4570;BME280;2297;51.442;6.996;2023-07-13T06:01:02;100357.63;;;18.11;49.02
4570;BME280;2297;51.442;6.996;2023-07-13T06:03:29;100354.97;;;17.94;50.02
4570;BME280;2297;51.442;6.996;2023-07-13T06:05:56;100348.81;;;18.09;49.72
4570;BME280;2297;51.442;6.996;2023-07-13T06:08:23;100361.72;;;18.01;49.75
4570;BME280;2297;51.442;6.996;2023-07-13T06:10:51;100364.91;;;17.36;51.60
4570;BME280;2297;51.442;6.996;2023-07-13T06:13:17;100361.25;;;17.75;50.95
4570;BME280;2297;51.442;6.996;2023-07-13T06:15:48;100367.16;;;17.07;52.57
4570;BME280;2297;51.442;6.996;2023-07-13T06:18:14;100368.09;;;16.87;53.74
4570;BME280;2297;51.442;6.996;2023-07-13T06:20:41;100357.97;;;16.75;54.17
4570;BME280;2297;51.442;6.996;2023-07-13T06:23:08;100361.16;;;17.21;53.16
4570;BME280;2297;51.442;6.996;2023-07-13T06:25:34;100362.41;;;16.74;54.29
4570;BME280;2297;51.442;6.996;2023-07-13T06:28:03;100371.16;;;17.35;52.93
4570;BME280;2297;51.442;6.996;2023-07-13T06:30:29;100369.53;;;17.69;51.87
4570;BME280;2297;51.442;6.996;2023-07-13T06:32:57;100376.09;;;17.62;52.19
4570;BME280;2297;51.442;6.996;2023-07-13T06:35:24;100378.97;;;17.76;51.85
4570;BME280;2297;51.442;6.996;2023-07-13T06:37:50;100370.50;;;17.86;51.72
4570;BME280;2297;51.442;6.996;2023-07-13T06:40:17;100378.06;;;17.58;52.12
4570;BME280;2297;51.442;6.996;2023-07-13T06:42:52;100375.53;;;17.74;51.75
4570;BME280;2297;51.442;6.996;2023-07-13T06:45:20;100381.44;;;17.62;52.26
4570;BME280;2297;51.442;6.996;2023-07-13T06:47:47;100381.63;;;17.76;52.41
4570;BME280;2297;51.442;6.996;2023-07-13T06:50:14;100383.84;;;17.86;52.02
4570;BME280;2297;51.442;6.996;2023-07-13T06:52:41;100385.13;;;18.13;51.32
4570;BME280;2297;51.442;6.996;2023-07-13T06:55:08;100388.66;;;18.14;51.24
4570;BME280;2297;51.442;6.996;2023-07-13T06:57:35;100395.03;;;18.11;51.34
4570;BME280;2297;51.442;6.996;2023-07-13T07:00:01;100385.59;;;17.87;51.95
4570;BME280;2297;51.442;6.996;2023-07-13T07:02:29;100387.22;;;18.24;51.22
4570;BME280;2297;51.442;6.996;2023-07-13T07:04:56;100397.03;;;18.76;49.93
4570;BME280;2297;51.442;6.996;2023-07-13T07:07:23;100396.09;;;18.42;50.39
4570;BME280;2297;51.442;6.996;2023-07-13T07:09:50;100400.84;;;18.88;49.48
4570;BME280;2297;51.442;6.996;2023-07-13T07:12:17;100399.84;;;18.73;50.35
4570;BME280;2297;51.442;6.996;2023-07-13T07:14:43;100410.53;;;18.73;49.89
4570;BME280;2297;51.442;6.996;2023-07-13T07:17:10;100404.59;;;18.51;50.74
4570;BME280;2297;51.442;6.996;2023-07-13T07:19:38;100405.91;;;18.43;51.08
4570;BME280;2297;51.442;6.996;2023-07-13T07:22:05;100397.44;;;19.34;49.02
4570;BME280;2297;51.442;6.996;2023-07-13T07:24:32;100417.72;;;19.22;49.05
4570;BME280;2297;51.442;6.996;2023-07-13T07:26:59;100404.31;;;19.06;49.59
4570;BME280;2297;51.442;6.996;2023-07-13T07:29:25;100406.53;;;18.98;49.87
4570;BME280;2297;51.442;6.996;2023-07-13T07:31:53;100415.50;;;18.97;49.88
4570;BME280;2297;51.442;6.996;2023-07-13T07:34:20;100401.31;;;18.63;50.91
4570;BME280;2297;51.442;6.996;2023-07-13T07:36:48;100407.28;;;18.51;51.53
4570;BME280;2297;51.442;6.996;2023-07-13T07:39:14;100406.13;;;18.56;51.38
4570;BME280;2297;51.442;6.996;2023-07-13T07:41:41;100409.72;;;18.55;51.08
4570;BME280;2297;51.442;6.996;2023-07-13T07:44:08;100411.72;;;19.01;49.93
4570;BME280;2297;51.442;6.996;2023-07-13T07:46:36;100408.97;;;18.87;50.01
4570;BME280;2297;51.442;6.996;2023-07-13T07:49:03;100404.13;;;18.60;50.88
4570;BME280;2297;51.442;6.996;2023-07-13T07:51:29;100405.53;;;18.67;50.40
4570;BME280;2297;51.442;6.996;2023-07-13T07:53:57;100406.28;;;18.18;51.72
4570;BME280;2297;51.442;6.996;2023-07-13T07:56:25;100417.97;;;18.51;51.05
4570;BME280;2297;51.442;6.996;2023-07-13T07:58:52;100413.81;;;18.45;51.12
4570;BME280;2297;51.442;6.996;2023-07-13T08:01:18;100417.66;;;18.57;50.65
4570;BME280;2297;51.442;6.996;2023-07-13T08:03:45;100416.09;;;18.35;51.62
4570;BME280;2297;51.442;6.996;2023-07-13T08:06:11;100407.53;;;18.28;51.64
4570;BME280;2297;51.442;6.996;2023-07-13T08:08:38;100417.19;;;18.31;51.07
4570;BME280;2297;51.442;6.996;2023-07-13T08:11:07;100418.44;;;18.41;51.13
4570;BME280;2297;51.442;6.996;2023-07-13T08:13:35;100422.31;;;18.18;51.40
4570;BME280;2297;51.442;6.996;2023-07-13T08:16:04;100416.50;;;18.96;49.97
4570;BME280;2297;51.442;6.996;2023-07-13T08:18:31;100410.22;;;18.79;50.35
4570;BME280;2297;51.442;6.996;2023-07-13T08:20:58;100411.16;;;18.78;49.72
4570;BME280;2297;51.442;6.996;2023-07-13T08:23:25;100407.72;;;18.76;49.58
4570;BME280;2297;51.442;6.996;2023-07-13T08:25:53;100403.50;;;18.55;50.44
4570;BME280;2297;51.442;6.996;2023-07-13T08:28:21;100420.34;;;19.06;49.64
4570;BME280;2297;51.442;6.996;2023-07-13T08:30:48;100413.59;;;18.83;49.71
4570;BME280;2297;51.442;6.996;2023-07-13T08:33:16;100413.78;;;19.45;48.33
4570;BME280;2297;51.442;6.996;2023-07-13T08:35:45;100415.97;;;19.05;49.40
4570;BME280;2297;51.442;6.996;2023-07-13T08:38:12;100407.47;;;19.31;49.04
4570;BME280;2297;51.442;6.996;2023-07-13T08:40:39;100410.28;;;19.59;48.27
4570;BME280;2297;51.442;6.996;2023-07-13T08:43:11;100405.56;;;19.33;49.02
4570;BME280;2297;51.442;6.996;2023-07-13T08:45:43;100408.00;;;19.37;48.88
4570;BME280;2297;51.442;6.996;2023-07-13T08:48:13;100398.16;;;19.22;49.03
4570;BME280;2297;51.442;6.996;2023-07-13T08:50:48;100404.75;;;19.15;49.52
4570;BME280;2297;51.442;6.996;2023-07-13T08:53:17;100399.44;;;19.63;48.00
4570;BME280;2297;51.442;6.996;2023-07-13T08:55:45;100400.88;;;19.68;47.92
4570;BME280;2297;51.442;6.996;2023-07-13T08:58:13;100395.78;;;19.64;48.01
4570;BME280;2297;51.442;6.996;2023-07-13T09:00:56;100397.25;;;19.69;47.62
4570;BME280;2297;51.442;6.996;2023-07-13T09:03:28;100404.97;;;19.90;47.67
4570;BME280;2297;51.442;6.996;2023-07-13T09:05:58;100395.72;;;20.26;46.62
4570;BME280;2297;51.442;6.996;2023-07-13T09:08:43;100396.50;;;20.73;45.73
4570;BME280;2297;51.442;6.996;2023-07-13T09:11:22;100398.75;;;20.05;47.02
4570;BME280;2297;51.442;6.996;2023-07-13T09:13:58;100392.91;;;20.43;46.40
4570;BME280;2297;51.442;6.996;2023-07-13T09:16:28;100400.72;;;20.32;45.73
4570;BME280;2297;51.442;6.996;2023-07-13T09:18:59;100405.06;;;19.88;47.09
4570;BME280;2297;51.442;6.996;2023-07-13T09:21:31;100413.78;;;20.38;46.24
4570;BME280;2297;51.442;6.996;2023-07-13T09:24:00;100408.09;;;20.43;46.03
4570;BME280;2297;51.442;6.996;2023-07-13T09:26:29;100408.63;;;20.19;46.43
4570;BME280;2297;51.442;6.996;2023-07-13T09:29:04;100397.13;;;20.48;46.15
4570;BME280;2297;51.442;6.996;2023-07-13T09:31:41;100403.81;;;19.96;47.73
4570;BME280;2297;51.442;6.996;2023-07-13T09:34:11;100400.16;;;20.41;46.98
4570;BME280;2297;51.442;6.996;2023-07-13T09:36:38;100407.69;;;20.94;45.80
4570;BME280;2297;51.442;6.996;2023-07-13T09:39:12;100398.44;;;21.27;45.39
4570;BME280;2297;51.442;6.996;2023-07-13T09:41:47;100402.03;;;20.84;45.74
4570;BME280;2297;51.442;6.996;2023-07-13T09:44:18;100411.31;;;20.64;46.52
4570;BME280;2297;51.442;6.996;2023-07-13T09:46:55;100407.03;;;20.90;46.06
4570;BME280;2297;51.442;6.996;2023-07-13T09:49:24;100409.44;;;20.66;46.34
4570;BME280;2297;51.442;6.996;2023-07-13T09:51:58;100407.31;;;20.71;46.40
4570;BME280;2297;51.442;6.996;2023-07-13T09:54:26;100402.13;;;20.68;46.36
4570;BME280;2297;51.442;6.996;2023-07-13T09:56:56;100406.34;;;20.58;46.73
4570;BME280;2297;51.442;6.996;2023-07-13T09:59:26;100407.84;;;20.48;46.96
4570;BME280;2297;51.442;6.996;2023-07-13T10:01:54;100413.25;;;20.91;46.14
4570;BME280;2297;51.442;6.996;2023-07-13T10:04:28;100413.63;;;21.14;44.98
4570;BME280;2297;51.442;6.996;2023-07-13T10:07:05;100427.28;;;20.51;45.52
4570;BME280;2297;51.442;6.996;2023-07-13T10:09:32;100415.34;;;21.00;45.33
4570;BME280;2297;51.442;6.996;2023-07-13T10:11:58;100427.97;;;20.55;46.17
4570;BME280;2297;51.442;6.996;2023-07-13T10:14:25;100429.69;;;20.56;45.92
4570;BME280;2297;51.442;6.996;2023-07-13T10:16:58;100422.66;;;20.39;46.24
4570;BME280;2297;51.442;6.996;2023-07-13T10:19:29;100417.06;;;20.87;44.76
4570;BME280;2297;51.442;6.996;2023-07-13T10:22:00;100422.06;;;21.22;44.29
4570;BME280;2297;51.442;6.996;2023-07-13T10:24:31;100436.78;;;20.57;45.91
4570;BME280;2297;51.442;6.996;2023-07-13T10:27:01;100428.97;;;20.68;45.70
4570;BME280;2297;51.442;6.996;2023-07-13T10:29:34;100425.44;;;20.82;45.43
4570;BME280;2297;51.442;6.996;2023-07-13T10:32:09;100426.69;;;20.76;45.77
4570;BME280;2297;51.442;6.996;2023-07-13T10:34:37;100422.59;;;20.55;45.70
4570;BME280;2297;51.442;6.996;2023-07-13T10:37:05;100433.94;;;21.18;44.49
4570;BME280;2297;51.442;6.996;2023-07-13T10:39:33;100426.81;;;21.60;43.66
4570;BME280;2297;51.442;6.996;2023-07-13T10:42:03;100443.78;;;21.60;43.87
4570;BME280;2297;51.442;6.996;2023-07-13T10:44:33;100435.00;;;21.30;43.74
4570;BME280;2297;51.442;6.996;2023-07-13T10:47:04;100438.28;;;20.77;44.71
4570;BME280;2297;51.442;6.996;2023-07-13T10:49:34;100438.44;;;20.88;44.58
4570;BME280;2297;51.442;6.996;2023-07-13T10:52:04;100438.78;;;20.53;45.25
4570;BME280;2297;51.442;6.996;2023-07-13T10:54:32;100436.81;;;21.15;43.63
4570;BME280;2297;51.442;6.996;2023-07-13T10:57:16;100436.66;;;20.89;44.45
4570;BME280;2297;51.442;6.996;2023-07-13T10:59:46;100444.50;;;21.06;44.23
4570;BME280;2297;51.442;6.996;2023-07-13T11:02:23;100432.44;;;20.99;44.43
4570;BME280;2297;51.442;6.996;2023-07-13T11:04:52;100430.22;;;21.62;43.43
4570;BME280;2297;51.442;6.996;2023-07-13T11:07:21;100437.84;;;21.83;42.46
4570;BME280;2297;51.442;6.996;2023-07-13T11:09:50;100441.19;;;21.59;41.81
4570;BME280;2297;51.442;6.996;2023-07-13T11:15:27;100435.97;;;21.14;42.61
4570;BME280;2297;51.442;6.996;2023-07-13T11:18:02;100433.75;;;21.06;41.66
4570;BME280;2297;51.442;6.996;2023-07-13T11:20:34;100436.28;;;21.78;40.58
4570;BME280;2297;51.442;6.996;2023-07-13T11:23:20;100445.88;;;21.55;40.62
4570;BME280;2297;51.442;6.996;2023-07-13T11:25:52;100439.31;;;21.18;41.71
4570;BME280;2297;51.442;6.996;2023-07-13T11:28:23;100429.16;;;21.23;41.48
4570;BME280;2297;51.442;6.996;2023-07-13T11:31:13;100433.66;;;20.65;43.28
4570;BME280;2297;51.442;6.996;2023-07-13T11:33:55;100425.53;;;21.66;41.17
4570;BME280;2297;51.442;6.996;2023-07-13T11:36:29;100427.75;;;22.14;39.70
4570;BME280;2297;51.442;6.996;2023-07-13T11:39:01;100422.03;;;22.05;39.01
4570;BME280;2297;51.442;6.996;2023-07-13T11:41:31;100427.69;;;22.54;38.50
4570;BME280;2297;51.442;6.996;2023-07-13T11:44:05;100414.81;;;22.85;38.64
4570;BME280;2297;51.442;6.996;2023-07-13T11:46:33;100431.19;;;22.69;38.09
4570;BME280;2297;51.442;6.996;2023-07-13T11:49:01;100419.41;;;22.96;38.22
4570;BME280;2297;51.442;6.996;2023-07-13T11:51:32;100419.72;;;22.65;38.68
4570;BME280;2297;51.442;6.996;2023-07-13T11:54:03;100413.38;;;22.79;38.18
4570;BME280;2297;51.442;6.996;2023-07-13T11:56:32;100410.06;;;22.75;37.40
4570;BME280;2297;51.442;6.996;2023-07-13T11:59:04;100403.38;;;22.68;36.59
4570;BME280;2297;51.442;6.996;2023-07-13T12:01:32;100398.88;;;23.19;36.04
4570;BME280;2297;51.442;6.996;2023-07-13T12:04:03;100400.25;;;23.37;35.88
4570;BME280;2297;51.442;6.996;2023-07-13T12:06:33;100398.78;;;23.33;35.85
4570;BME280;2297;51.442;6.996;2023-07-13T12:09:03;100404.81;;;23.11;35.31
4570;BME280;2297;51.442;6.996;2023-07-13T12:11:40;100403.56;;;23.04;35.59
4570;BME280;2297;51.442;6.996;2023-07-13T12:14:13;100403.56;;;22.65;35.34
4570;BME280;2297;51.442;6.996;2023-07-13T12:16:40;100403.38;;;22.68;35.28
4570;BME280;2297;51.442;6.996;2023-07-13T12:19:17;100405.91;;;23.08;34.36
4570;BME280;2297;51.442;6.996;2023-07-13T12:21:44;100402.88;;;23.26;33.78
4570;BME280;2297;51.442;6.996;2023-07-13T12:24:15;100391.97;;;23.40;33.78
4570;BME280;2297;51.442;6.996;2023-07-13T12:26:42;100405.72;;;22.99;33.85
4570;BME280;2297;51.442;6.996;2023-07-13T12:29:15;100406.53;;;23.12;34.33
4570;BME280;2297;51.442;6.996;2023-07-13T12:31:44;100407.13;;;23.41;33.61
4570;BME280;2297;51.442;6.996;2023-07-13T12:34:14;100398.59;;;23.48;33.46
4570;BME280;2297;51.442;6.996;2023-07-13T12:36:46;100406.66;;;23.61;33.17
4570;BME280;2297;51.442;6.996;2023-07-13T12:39:17;100405.88;;;23.34;33.29
4570;BME280;2297;51.442;6.996;2023-07-13T12:41:45;100414.50;;;23.14;33.81
4570;BME280;2297;51.442;6.996;2023-07-13T12:44:14;100403.72;;;23.39;33.65
4570;BME280;2297;51.442;6.996;2023-07-13T12:46:52;100409.94;;;23.27;34.15
4570;BME280;2297;51.442;6.996;2023-07-13T12:49:24;100399.78;;;23.92;33.44
4570;BME280;2297;51.442;6.996;2023-07-13T12:51:56;100397.91;;;23.81;33.04
4570;BME280;2297;51.442;6.996;2023-07-13T12:54:22;100395.19;;;23.70;33.42
4570;BME280;2297;51.442;6.996;2023-07-13T12:56:50;100395.53;;;23.15;33.83
4570;BME280;2297;51.442;6.996;2023-07-13T12:59:20;100408.47;;;23.23;34.16
4570;BME280;2297;51.442;6.996;2023-07-13T13:01:48;100408.97;;;22.65;35.24
4570;BME280;2297;51.442;6.996;2023-07-13T13:04:16;100414.13;;;22.42;35.57
4570;BME280;2297;51.442;6.996;2023-07-13T13:06:48;100412.38;;;22.29;35.75
4570;BME280;2297;51.442;6.996;2023-07-13T13:09:17;100421.50;;;22.26;35.91
4570;BME280;2297;51.442;6.996;2023-07-13T13:11:45;100427.91;;;22.51;36.00
4570;BME280;2297;51.442;6.996;2023-07-13T13:14:12;100430.69;;;22.62;36.10
4570;BME280;2297;51.442;6.996;2023-07-13T13:16:46;100431.28;;;22.14;36.88
4570;BME280;2297;51.442;6.996;2023-07-13T13:19:15;100436.25;;;22.20;37.55
4570;BME280;2297;51.442;6.996;2023-07-13T13:21:44;100434.25;;;21.69;39.52